sensor_id;sensor_type;location;lat;lon;timestamp;temperature;humidity
75899;DHT22;64576;50.460;4.866;2022-10-30T00:00:29;17.19;69.81
75899;DHT22;64576;50.460;4.866;2022-10-30T00:02:55;17.29;69.38
75899;DHT22;64576;50.460;4.866;2022-10-30T00:05:21;17.36;69.13
75899;DHT22;64576;50.460;4.866;2022-10-30T00:07:47;17.31;69.30
75899;DHT22;64576;50.460;4.866;2022-10-30T00:10:13;17.36;69.05
75899;DHT22;64576;50.460;4.866;2022-10-30T00:12:39;17.29;69.18
75899;DHT22;64576;50.460;4.866;2022-10-30T00:15:05;17.12;69.98
75899;DHT22;64576;50.460;4.866;2022-10-30T00:17:31;17.00;70.70
75899;DHT22;64576;50.460;4.866;2022-10-30T00:19:57;16.84;71.15
75899;DHT22;64576;50.460;4.866;2022-10-30T00:22:22;16.79;71.44
75899;DHT22;64576;50.460;4.866;2022-10-30T00:24:48;16.77;71.55
75899;DHT22;64576;50.460;4.866;2022-10-30T00:27:13;16.84;71.12
75899;DHT22;64576;50.460;4.866;2022-10-30T00:29:38;16.81;71.32
75899;DHT22;64576;50.460;4.866;2022-10-30T00:32:04;16.80;71.17
75899;DHT22;64576;50.460;4.866;2022-10-30T00:34:29;16.84;71.18
75899;DHT22;64576;50.460;4.866;2022-10-30T00:36:54;16.80;71.30
75899;DHT22;64576;50.460;4.866;2022-10-30T00:39:20;16.66;71.73
75899;DHT22;64576;50.460;4.866;2022-10-30T00:41:45;16.53;72.36
75899;DHT22;64576;50.460;4.866;2022-10-30T00:44:48;16.39;73.12
75899;DHT22;64576;50.460;4.866;2022-10-30T00:47:16;16.18;73.90
75899;DHT22;64576;50.460;4.866;2022-10-30T00:49:50;16.08;74.24
75899;DHT22;64576;50.460;4.866;2022-10-30T00:52:19;16.08;74.35
75899;DHT22;64576;50.460;4.866;2022-10-30T00:54:45;16.22;73.68
75899;DHT22;64576;50.460;4.866;2022-10-30T00:57:10;16.42;72.70
75899;DHT22;64576;50.460;4.866;2022-10-30T00:59:36;16.49;72.39
75899;DHT22;64576;50.460;4.866;2022-10-30T01:02:02;16.48;72.30
75899;DHT22;64576;50.460;4.866;2022-10-30T01:04:30;16.36;72.77
75899;DHT22;64576;50.460;4.866;2022-10-30T01:06:58;16.22;73.39
75899;DHT22;64576;50.460;4.866;2022-10-30T01:09:29;16.05;73.91
75899;DHT22;64576;50.460;4.866;2022-10-30T01:11:55;15.87;74.98
75899;DHT22;64576;50.460;4.866;2022-10-30T01:14:22;15.74;75.35
75899;DHT22;64576;50.460;4.866;2022-10-30T01:19:24;15.77;75.33
75899;DHT22;64576;50.460;4.866;2022-10-30T01:30:33;15.61;76.07
75899;DHT22;64576;50.460;4.866;2022-10-30T01:33:22;15.73;75.60
75899;DHT22;64576;50.460;4.866;2022-10-30T01:36:19;15.70;75.82
75899;DHT22;64576;50.460;4.866;2022-10-30T01:41:16;15.51;76.53
75899;DHT22;64576;50.460;4.866;2022-10-30T01:43:47;15.66;75.97
75899;DHT22;64576;50.460;4.866;2022-10-30T01:46:38;15.76;75.52
75899;DHT22;64576;50.460;4.866;2022-10-30T01:55:46;15.74;75.54
75899;DHT22;64576;50.460;4.866;2022-10-30T01:58:42;15.64;76.03
75899;DHT22;64576;50.460;4.866;2022-10-30T02:01:11;15.68;75.78
75899;DHT22;64576;50.460;4.866;2022-10-30T02:03:37;15.66;75.92
75899;DHT22;64576;50.460;4.866;2022-10-30T02:06:03;15.67;75.86
75899;DHT22;64576;50.460;4.866;2022-10-30T02:08:29;15.70;75.72
75899;DHT22;64576;50.460;4.866;2022-10-30T02:10:56;15.71;75.67
75899;DHT22;64576;50.460;4.866;2022-10-30T02:13:22;15.67;75.65
75899;DHT22;64576;50.460;4.866;2022-10-30T02:15:48;15.73;75.47
75899;DHT22;64576;50.460;4.866;2022-10-30T02:18:14;15.68;75.67
75899;DHT22;64576;50.460;4.866;2022-10-30T02:20:39;15.74;75.53
75899;DHT22;64576;50.460;4.866;2022-10-30T02:23:05;15.61;76.09
75899;DHT22;64576;50.460;4.866;2022-10-30T02:25:30;15.53;76.43
75899;DHT22;64576;50.460;4.866;2022-10-30T02:27:56;15.36;77.33
75899;DHT22;64576;50.460;4.866;2022-10-30T02:30:21;15.21;78.10
75899;DHT22;64576;50.460;4.866;2022-10-30T02:32:46;15.11;78.56
75899;DHT22;64576;50.460;4.866;2022-10-30T02:35:12;14.98;79.00
75899;DHT22;64576;50.460;4.866;2022-10-30T02:37:37;14.99;78.80
75899;DHT22;64576;50.460;4.866;2022-10-30T02:40:04;15.04;78.57
75899;DHT22;64576;50.460;4.866;2022-10-30T02:42:33;14.99;78.54
75899;DHT22;64576;50.460;4.866;2022-10-30T02:44:58;15.01;78.48
75899;DHT22;64576;50.460;4.866;2022-10-30T02:47:24;15.09;78.13
75899;DHT22;64576;50.460;4.866;2022-10-30T02:49:49;15.12;77.98
75899;DHT22;64576;50.460;4.866;2022-10-30T02:52:15;15.19;77.66
75899;DHT22;64576;50.460;4.866;2022-10-30T02:54:40;15.18;77.63
75899;DHT22;64576;50.460;4.866;2022-10-30T02:57:05;15.18;77.61
75899;DHT22;64576;50.460;4.866;2022-10-30T02:59:34;15.19;77.64
75899;DHT22;64576;50.460;4.866;2022-10-30T03:01:59;15.15;77.57
75899;DHT22;64576;50.460;4.866;2022-10-30T03:04:24;15.16;77.68
75899;DHT22;64576;50.460;4.866;2022-10-30T03:06:49;15.13;77.79
75899;DHT22;64576;50.460;4.866;2022-10-30T03:09:15;15.09;77.93
75899;DHT22;64576;50.460;4.866;2022-10-30T03:11:40;15.13;77.70
75899;DHT22;64576;50.460;4.866;2022-10-30T03:14:06;15.08;77.97
75899;DHT22;64576;50.460;4.866;2022-10-30T03:16:32;14.84;79.58
75899;DHT22;64576;50.460;4.866;2022-10-30T03:18:58;14.48;81.26
75899;DHT22;64576;50.460;4.866;2022-10-30T03:21:25;14.43;81.08
75899;DHT22;64576;50.460;4.866;2022-10-30T03:23:52;14.59;80.25
75899;DHT22;64576;50.460;4.866;2022-10-30T03:26:18;14.80;79.29
75899;DHT22;64576;50.460;4.866;2022-10-30T03:28:43;14.88;78.82
75899;DHT22;64576;50.460;4.866;2022-10-30T03:31:11;14.83;79.10
75899;DHT22;64576;50.460;4.866;2022-10-30T03:33:37;14.70;79.62
75899;DHT22;64576;50.460;4.866;2022-10-30T03:36:07;14.60;80.02
75899;DHT22;64576;50.460;4.866;2022-10-30T03:38:33;14.71;79.46
75899;DHT22;64576;50.460;4.866;2022-10-30T03:40:59;14.74;79.12
75899;DHT22;64576;50.460;4.866;2022-10-30T03:43:25;14.88;78.66
75899;DHT22;64576;50.460;4.866;2022-10-30T03:45:52;14.95;78.22
75899;DHT22;64576;50.460;4.866;2022-10-30T03:48:19;14.92;78.26
75899;DHT22;64576;50.460;4.866;2022-10-30T03:50:45;14.87;78.49
75899;DHT22;64576;50.460;4.866;2022-10-30T03:53:12;14.77;78.85
75899;DHT22;64576;50.460;4.866;2022-10-30T03:55:37;14.63;79.54
75899;DHT22;64576;50.460;4.866;2022-10-30T03:58:03;14.47;80.49
75899;DHT22;64576;50.460;4.866;2022-10-30T04:00:29;14.54;79.99
75899;DHT22;64576;50.460;4.866;2022-10-30T04:02:54;14.59;79.68
75899;DHT22;64576;50.460;4.866;2022-10-30T04:05:21;14.53;80.18
75899;DHT22;64576;50.460;4.866;2022-10-30T04:07:47;14.29;81.35
75899;DHT22;64576;50.460;4.866;2022-10-30T04:10:13;14.16;82.09
75899;DHT22;64576;50.460;4.866;2022-10-30T04:12:38;14.15;82.09
75899;DHT22;64576;50.460;4.866;2022-10-30T04:15:05;14.04;82.70
75899;DHT22;64576;50.460;4.866;2022-10-30T04:17:30;14.13;82.00
75899;DHT22;64576;50.460;4.866;2022-10-30T04:19:56;14.26;81.29
75899;DHT22;64576;50.460;4.866;2022-10-30T04:22:21;14.47;80.23
75899;DHT22;64576;50.460;4.866;2022-10-30T04:24:47;14.51;80.10
75899;DHT22;64576;50.460;4.866;2022-10-30T04:27:14;14.39;80.64
75899;DHT22;64576;50.460;4.866;2022-10-30T04:29:39;14.30;81.05
75899;DHT22;64576;50.460;4.866;2022-10-30T04:32:06;14.13;82.01
75899;DHT22;64576;50.460;4.866;2022-10-30T04:34:32;13.88;83.30
75899;DHT22;64576;50.460;4.866;2022-10-30T04:36:58;13.54;85.12
75899;DHT22;64576;50.460;4.866;2022-10-30T04:39:24;13.44;85.26
75899;DHT22;64576;50.460;4.866;2022-10-30T04:41:49;13.54;84.55
75899;DHT22;64576;50.460;4.866;2022-10-30T04:44:15;13.65;84.15
75899;DHT22;64576;50.460;4.866;2022-10-30T04:46:40;13.88;82.79
75899;DHT22;64576;50.460;4.866;2022-10-30T04:49:06;13.97;82.28
75899;DHT22;64576;50.460;4.866;2022-10-30T04:51:31;14.11;81.36
75899;DHT22;64576;50.460;4.866;2022-10-30T04:53:56;14.12;81.56
75899;DHT22;64576;50.460;4.866;2022-10-30T04:56:22;13.88;82.80
75899;DHT22;64576;50.460;4.866;2022-10-30T04:58:48;13.70;83.78
75899;DHT22;64576;50.460;4.866;2022-10-30T05:01:13;13.79;83.07
75899;DHT22;64576;50.460;4.866;2022-10-30T05:03:38;13.91;82.41
75899;DHT22;64576;50.460;4.866;2022-10-30T05:06:20;13.82;82.90
75899;DHT22;64576;50.460;4.866;2022-10-30T05:08:46;13.61;83.85
75899;DHT22;64576;50.460;4.866;2022-10-30T05:11:11;13.42;84.74
75899;DHT22;64576;50.460;4.866;2022-10-30T05:13:36;13.30;85.30
75899;DHT22;64576;50.460;4.866;2022-10-30T05:16:02;13.20;85.93
75899;DHT22;64576;50.460;4.866;2022-10-30T05:18:27;13.19;85.86
75899;DHT22;64576;50.460;4.866;2022-10-30T05:20:52;13.37;84.56
75899;DHT22;64576;50.460;4.866;2022-10-30T05:23:18;13.75;82.56
75899;DHT22;64576;50.460;4.866;2022-10-30T05:25:43;13.97;81.22
75899;DHT22;64576;50.460;4.866;2022-10-30T05:28:09;14.11;80.65
75899;DHT22;64576;50.460;4.866;2022-10-30T05:30:34;14.12;80.67
75899;DHT22;64576;50.460;4.866;2022-10-30T05:33:02;14.08;80.69
75899;DHT22;64576;50.460;4.866;2022-10-30T05:35:28;13.99;81.10
75899;DHT22;64576;50.460;4.866;2022-10-30T05:37:54;13.84;81.69
75899;DHT22;64576;50.460;4.866;2022-10-30T05:40:19;13.54;83.73
75899;DHT22;64576;50.460;4.866;2022-10-30T05:42:46;13.23;85.10
75899;DHT22;64576;50.460;4.866;2022-10-30T05:45:12;13.05;85.97
75899;DHT22;64576;50.460;4.866;2022-10-30T05:47:37;12.95;86.53
75899;DHT22;64576;50.460;4.866;2022-10-30T05:50:03;13.17;85.00
75899;DHT22;64576;50.460;4.866;2022-10-30T05:52:29;13.39;83.61
75899;DHT22;64576;50.460;4.866;2022-10-30T05:54:54;13.57;82.81
75899;DHT22;64576;50.460;4.866;2022-10-30T05:57:20;13.57;82.80
75899;DHT22;64576;50.460;4.866;2022-10-30T05:59:45;13.40;83.67
75899;DHT22;64576;50.460;4.866;2022-10-30T06:02:10;13.16;85.47
75899;DHT22;64576;50.460;4.866;2022-10-30T06:04:36;12.79;86.97
75899;DHT22;64576;50.460;4.866;2022-10-30T06:07:01;12.58;88.27
75899;DHT22;64576;50.460;4.866;2022-10-30T06:09:26;12.45;88.96
75899;DHT22;64576;50.460;4.866;2022-10-30T06:11:52;12.30;89.66
75899;DHT22;64576;50.460;4.866;2022-10-30T06:14:18;12.26;89.89
75899;DHT22;64576;50.460;4.866;2022-10-30T06:16:43;12.19;90.28
75899;DHT22;64576;50.460;4.866;2022-10-30T06:19:08;12.17;90.41
75899;DHT22;64576;50.460;4.866;2022-10-30T06:21:33;12.23;90.15
75899;DHT22;64576;50.460;4.866;2022-10-30T06:23:59;12.22;90.08
75899;DHT22;64576;50.460;4.866;2022-10-30T06:26:24;12.23;90.25
75899;DHT22;64576;50.460;4.866;2022-10-30T06:28:49;12.17;90.31
75899;DHT22;64576;50.460;4.866;2022-10-30T06:31:15;12.10;90.78
75899;DHT22;64576;50.460;4.866;2022-10-30T06:33:40;12.07;90.92
75899;DHT22;64576;50.460;4.866;2022-10-30T06:36:06;12.09;90.82
75899;DHT22;64576;50.460;4.866;2022-10-30T06:38:31;12.09;90.80
75899;DHT22;64576;50.460;4.866;2022-10-30T06:40:56;12.15;90.44
75899;DHT22;64576;50.460;4.866;2022-10-30T06:43:22;12.19;90.34
75899;DHT22;64576;50.460;4.866;2022-10-30T06:45:47;12.22;90.12
75899;DHT22;64576;50.460;4.866;2022-10-30T06:48:12;12.22;90.15
75899;DHT22;64576;50.460;4.866;2022-10-30T06:50:38;12.15;90.48
75899;DHT22;64576;50.460;4.866;2022-10-30T06:53:03;12.09;91.06
75899;DHT22;64576;50.460;4.866;2022-10-30T06:55:29;12.24;90.07
75899;DHT22;64576;50.460;4.866;2022-10-30T06:57:55;12.53;88.59
75899;DHT22;64576;50.460;4.866;2022-10-30T07:00:21;12.65;87.89
75899;DHT22;64576;50.460;4.866;2022-10-30T07:03:00;12.79;86.98
75899;DHT22;64576;50.460;4.866;2022-10-30T07:05:25;12.75;87.45
75899;DHT22;64576;50.460;4.866;2022-10-30T07:07:51;12.55;88.01
75899;DHT22;64576;50.460;4.866;2022-10-30T07:10:16;12.40;88.80
75899;DHT22;64576;50.460;4.866;2022-10-30T07:12:42;12.40;88.99
75899;DHT22;64576;50.460;4.866;2022-10-30T07:15:07;12.60;87.89
75899;DHT22;64576;50.460;4.866;2022-10-30T07:17:32;12.91;86.30
75899;DHT22;64576;50.460;4.866;2022-10-30T07:19:58;13.26;84.62
75899;DHT22;64576;50.460;4.866;2022-10-30T07:22:23;13.44;84.10
75899;DHT22;64576;50.460;4.866;2022-10-30T07:24:48;13.43;84.25
75899;DHT22;64576;50.460;4.866;2022-10-30T07:27:14;13.42;84.30
75899;DHT22;64576;50.460;4.866;2022-10-30T07:29:39;13.36;84.57
75899;DHT22;64576;50.460;4.866;2022-10-30T07:32:04;13.42;84.06
75899;DHT22;64576;50.460;4.866;2022-10-30T07:34:30;13.54;83.85
75899;DHT22;64576;50.460;4.866;2022-10-30T07:36:56;13.92;81.93
75899;DHT22;64576;50.460;4.866;2022-10-30T07:39:21;14.04;81.36
75899;DHT22;64576;50.460;4.866;2022-10-30T07:41:49;13.82;82.26
75899;DHT22;64576;50.460;4.866;2022-10-30T07:44:15;14.01;81.80
75899;DHT22;64576;50.460;4.866;2022-10-30T07:46:40;14.05;81.22
75899;DHT22;64576;50.460;4.866;2022-10-30T07:49:05;13.99;81.31
75899;DHT22;64576;50.460;4.866;2022-10-30T07:51:31;14.08;81.18
75899;DHT22;64576;50.460;4.866;2022-10-30T07:53:56;14.23;80.55
75899;DHT22;64576;50.460;4.866;2022-10-30T07:56:21;13.91;81.27
75899;DHT22;64576;50.460;4.866;2022-10-30T07:58:47;13.98;81.63
75899;DHT22;64576;50.460;4.866;2022-10-30T08:01:12;14.16;80.79
75899;DHT22;64576;50.460;4.866;2022-10-30T08:03:38;14.08;80.75
75899;DHT22;64576;50.460;4.866;2022-10-30T08:06:03;14.23;80.13
75899;DHT22;64576;50.460;4.866;2022-10-30T08:08:29;14.53;78.68
75899;DHT22;64576;50.460;4.866;2022-10-30T08:10:54;15.06;76.91
75899;DHT22;64576;50.460;4.866;2022-10-30T08:13:19;15.22;76.15
75899;DHT22;64576;50.460;4.866;2022-10-30T08:15:45;15.05;76.85
75899;DHT22;64576;50.460;4.866;2022-10-30T08:18:10;15.28;75.94
75899;DHT22;64576;50.460;4.866;2022-10-30T08:20:35;15.39;74.82
75899;DHT22;64576;50.460;4.866;2022-10-30T08:23:01;15.61;74.09
75899;DHT22;64576;50.460;4.866;2022-10-30T08:25:28;16.01;72.76
75899;DHT22;64576;50.460;4.866;2022-10-30T08:27:58;16.25;72.52
75899;DHT22;64576;50.460;4.866;2022-10-30T08:30:25;16.80;70.55
75899;DHT22;64576;50.460;4.866;2022-10-30T08:32:51;16.56;71.00
75899;DHT22;64576;50.460;4.866;2022-10-30T08:35:17;16.22;71.94
75899;DHT22;64576;50.460;4.866;2022-10-30T08:37:42;15.98;73.63
75899;DHT22;64576;50.460;4.866;2022-10-30T08:40:09;16.53;71.62
75899;DHT22;64576;50.460;4.866;2022-10-30T08:42:35;17.43;67.77
75899;DHT22;64576;50.460;4.866;2022-10-30T08:45:00;17.07;68.98
75899;DHT22;64576;50.460;4.866;2022-10-30T08:47:26;17.25;67.69
75899;DHT22;64576;50.460;4.866;2022-10-30T08:49:51;17.62;67.45
75899;DHT22;64576;50.460;4.866;2022-10-30T08:52:16;17.72;66.87
75899;DHT22;64576;50.460;4.866;2022-10-30T08:54:42;16.83;69.28
75899;DHT22;64576;50.460;4.866;2022-10-30T08:57:07;16.67;70.15
75899;DHT22;64576;50.460;4.866;2022-10-30T08:59:34;16.85;70.11
75899;DHT22;64576;50.460;4.866;2022-10-30T09:01:59;16.81;70.09
75899;DHT22;64576;50.460;4.866;2022-10-30T09:04:24;17.01;69.50
75899;DHT22;64576;50.460;4.866;2022-10-30T09:06:50;16.95;69.59
75899;DHT22;64576;50.460;4.866;2022-10-30T09:09:15;16.74;69.56
75899;DHT22;64576;50.460;4.866;2022-10-30T09:11:40;16.85;69.72
75899;DHT22;64576;50.460;4.866;2022-10-30T09:14:06;16.98;68.75
75899;DHT22;64576;50.460;4.866;2022-10-30T09:16:31;17.84;66.07
75899;DHT22;64576;50.460;4.866;2022-10-30T09:18:56;18.32;63.72
75899;DHT22;64576;50.460;4.866;2022-10-30T09:21:21;18.05;64.57
75899;DHT22;64576;50.460;4.866;2022-10-30T09:23:47;18.73;62.30
75899;DHT22;64576;50.460;4.866;2022-10-30T09:26:12;18.96;61.39
75899;DHT22;64576;50.460;4.866;2022-10-30T09:28:38;18.35;62.93
75899;DHT22;64576;50.460;4.866;2022-10-30T09:31:03;18.45;63.18
75899;DHT22;64576;50.460;4.866;2022-10-30T09:33:28;17.80;65.04
75899;DHT22;64576;50.460;4.866;2022-10-30T09:35:54;17.97;64.71
75899;DHT22;64576;50.460;4.866;2022-10-30T09:38:19;18.41;62.92
75899;DHT22;64576;50.460;4.866;2022-10-30T09:46:04;20.27;57.84
75899;DHT22;64576;50.460;4.866;2022-10-30T09:56:47;20.53;57.22
75899;DHT22;64576;50.460;4.866;2022-10-30T10:04:38;20.44;57.14
75899;DHT22;64576;50.460;4.866;2022-10-30T10:07:30;20.16;57.96
75899;DHT22;64576;50.460;4.866;2022-10-30T10:10:04;20.37;57.27
75899;DHT22;64576;50.460;4.866;2022-10-30T10:12:40;21.03;55.00
75899;DHT22;64576;50.460;4.866;2022-10-30T10:15:19;21.47;54.18
75899;DHT22;64576;50.460;4.866;2022-10-30T10:17:45;21.88;53.15
75899;DHT22;64576;50.460;4.866;2022-10-30T10:20:26;21.47;53.13
75899;DHT22;64576;50.460;4.866;2022-10-30T10:22:54;21.77;53.28
75899;DHT22;64576;50.460;4.866;2022-10-30T10:25:19;21.51;54.04
75899;DHT22;64576;50.460;4.866;2022-10-30T10:30:25;22.06;52.31
75899;DHT22;64576;50.460;4.866;2022-10-30T10:33:17;21.99;52.87
75899;DHT22;64576;50.460;4.866;2022-10-30T10:44:17;23.26;50.50
75899;DHT22;64576;50.460;4.866;2022-10-30T10:52:39;22.69;50.36
75899;DHT22;64576;50.460;4.866;2022-10-30T10:55:15;22.26;51.84
75899;DHT22;64576;50.460;4.866;2022-10-30T10:57:42;22.71;50.04
75899;DHT22;64576;50.460;4.866;2022-10-30T11:00:16;22.75;50.21
75899;DHT22;64576;50.460;4.866;2022-10-30T11:03:04;23.09;49.71
75899;DHT22;64576;50.460;4.866;2022-10-30T11:05:38;22.94;50.01
75899;DHT22;64576;50.460;4.866;2022-10-30T11:10:47;23.23;48.98
75899;DHT22;64576;50.460;4.866;2022-10-30T11:13:13;23.08;49.80
75899;DHT22;64576;50.460;4.866;2022-10-30T11:15:59;23.53;47.93
75899;DHT22;64576;50.460;4.866;2022-10-30T11:18:29;23.49;48.21
75899;DHT22;64576;50.460;4.866;2022-10-30T11:21:08;23.43;48.29
75899;DHT22;64576;50.460;4.866;2022-10-30T11:23:42;22.92;49.75
75899;DHT22;64576;50.460;4.866;2022-10-30T11:29:12;23.36;47.91
75899;DHT22;64576;50.460;4.866;2022-10-30T11:31:40;23.00;49.22
75899;DHT22;64576;50.460;4.866;2022-10-30T11:34:17;23.17;48.57
75899;DHT22;64576;50.460;4.866;2022-10-30T11:36:45;22.51;50.04
75899;DHT22;64576;50.460;4.866;2022-10-30T11:39:17;23.40;48.96
75899;DHT22;64576;50.460;4.866;2022-10-30T11:44:18;23.55;49.23
75899;DHT22;64576;50.460;4.866;2022-10-30T11:46:43;23.58;48.64
75899;DHT22;64576;50.460;4.866;2022-10-30T11:49:44;22.82;50.32
75899;DHT22;64576;50.460;4.866;2022-10-30T11:52:10;22.87;49.01
75899;DHT22;64576;50.460;4.866;2022-10-30T11:54:39;22.71;49.06
75899;DHT22;64576;50.460;4.866;2022-10-30T11:57:18;22.92;49.04
75899;DHT22;64576;50.460;4.866;2022-10-30T11:59:45;22.88;48.75
75899;DHT22;64576;50.460;4.866;2022-10-30T12:02:24;22.88;48.49
75899;DHT22;64576;50.460;4.866;2022-10-30T12:04:51;22.98;48.22
75899;DHT22;64576;50.460;4.866;2022-10-30T12:09:48;22.07;50.20
75899;DHT22;64576;50.460;4.866;2022-10-30T12:12:21;21.81;51.28
75899;DHT22;64576;50.460;4.866;2022-10-30T12:14:47;21.75;51.55
75899;DHT22;64576;50.460;4.866;2022-10-30T12:17:14;21.75;51.14
75899;DHT22;64576;50.460;4.866;2022-10-30T12:19:48;21.68;51.39
75899;DHT22;64576;50.460;4.866;2022-10-30T12:22:24;21.55;51.47
75899;DHT22;64576;50.460;4.866;2022-10-30T12:24:51;22.02;50.04
75899;DHT22;64576;50.460;4.866;2022-10-30T12:27:16;21.77;50.86
75899;DHT22;64576;50.460;4.866;2022-10-30T12:30:29;22.00;50.32
75899;DHT22;64576;50.460;4.866;2022-10-30T12:32:51;22.50;49.78
75899;DHT22;64576;50.460;4.866;2022-10-30T12:35:33;22.60;49.24
75899;DHT22;64576;50.460;4.866;2022-10-30T12:38:01;22.20;51.16
75899;DHT22;64576;50.460;4.866;2022-10-30T12:40:30;21.81;51.63
75899;DHT22;64576;50.460;4.866;2022-10-30T12:45:43;21.26;52.99
75899;DHT22;64576;50.460;4.866;2022-10-30T12:48:23;21.44;52.62
75899;DHT22;64576;50.460;4.866;2022-10-30T12:51:20;21.78;49.86
75899;DHT22;64576;50.460;4.866;2022-10-30T12:53:58;21.62;50.18
75899;DHT22;64576;50.460;4.866;2022-10-30T12:56:30;22.00;49.64
75899;DHT22;64576;50.460;4.866;2022-10-30T12:59:01;21.51;49.90
75899;DHT22;64576;50.460;4.866;2022-10-30T13:01:37;21.55;50.39
75899;DHT22;64576;50.460;4.866;2022-10-30T13:04:15;21.45;49.68
75899;DHT22;64576;50.460;4.866;2022-10-30T13:07:07;21.45;50.47
75899;DHT22;64576;50.460;4.866;2022-10-30T13:12:40;21.75;49.55
75899;DHT22;64576;50.460;4.866;2022-10-30T13:15:16;22.16;48.29
75899;DHT22;64576;50.460;4.866;2022-10-30T13:17:44;22.16;47.38
75899;DHT22;64576;50.460;4.866;2022-10-30T13:20:14;21.95;47.21
75899;DHT22;64576;50.460;4.866;2022-10-30T13:25:21;24.02;43.59
75899;DHT22;64576;50.460;4.866;2022-10-30T13:27:50;24.92;41.99
75899;DHT22;64576;50.460;4.866;2022-10-30T13:30:19;25.19;41.09
75899;DHT22;64576;50.460;4.866;2022-10-30T13:33:04;23.78;43.83
75899;DHT22;64576;50.460;4.866;2022-10-30T13:36:10;23.64;44.40
75899;DHT22;64576;50.460;4.866;2022-10-30T13:38:44;23.86;43.98
75899;DHT22;64576;50.460;4.866;2022-10-30T13:41:50;24.01;44.12
75899;DHT22;64576;50.460;4.866;2022-10-30T13:44:45;24.28;43.22
75899;DHT22;64576;50.460;4.866;2022-10-30T13:49:58;24.39;42.41
75899;DHT22;64576;50.460;4.866;2022-10-30T13:52:29;24.19;42.86
75899;DHT22;64576;50.460;4.866;2022-10-30T13:55:04;23.81;43.74
75899;DHT22;64576;50.460;4.866;2022-10-30T14:00:19;21.75;48.35
75899;DHT22;64576;50.460;4.866;2022-10-30T14:09:02;20.67;52.09
75899;DHT22;64576;50.460;4.866;2022-10-30T14:11:30;20.85;51.25
75899;DHT22;64576;50.460;4.866;2022-10-30T14:14:02;20.83;51.59
75899;DHT22;64576;50.460;4.866;2022-10-30T14:16:45;20.62;51.90
75899;DHT22;64576;50.460;4.866;2022-10-30T14:19:27;20.90;52.04
75899;DHT22;64576;50.460;4.866;2022-10-30T14:21:54;21.75;49.60
75899;DHT22;64576;50.460;4.866;2022-10-30T14:24:20;22.40;48.37
75899;DHT22;64576;50.460;4.866;2022-10-30T14:26:50;22.34;48.62
75899;DHT22;64576;50.460;4.866;2022-10-30T14:32:46;22.18;49.01
75899;DHT22;64576;50.460;4.866;2022-10-30T14:40:31;21.14;52.63
75899;DHT22;64576;50.460;4.866;2022-10-30T14:43:05;20.99;53.08
75899;DHT22;64576;50.460;4.866;2022-10-30T14:45:55;21.08;52.98
75899;DHT22;64576;50.460;4.866;2022-10-30T14:53:57;20.58;54.91
75899;DHT22;64576;50.460;4.866;2022-10-30T15:15:31;19.92;57.76
75899;DHT22;64576;50.460;4.866;2022-10-30T15:18:29;19.85;58.33
75899;DHT22;64576;50.460;4.866;2022-10-30T15:20:55;19.67;59.07
75899;DHT22;64576;50.460;4.866;2022-10-30T15:23:29;19.59;59.75
75899;DHT22;64576;50.460;4.866;2022-10-30T15:25:58;19.49;60.02
75899;DHT22;64576;50.460;4.866;2022-10-30T15:28:26;19.39;60.21
75899;DHT22;64576;50.460;4.866;2022-10-30T15:31:21;19.30;60.87
75899;DHT22;64576;50.460;4.866;2022-10-30T15:33:48;19.14;61.27
75899;DHT22;64576;50.460;4.866;2022-10-30T15:36:18;19.07;61.87
75899;DHT22;64576;50.460;4.866;2022-10-30T15:38:44;18.89;62.50
75899;DHT22;64576;50.460;4.866;2022-10-30T15:41:27;18.69;63.29
75899;DHT22;64576;50.460;4.866;2022-10-30T15:43:54;18.57;63.94
75899;DHT22;64576;50.460;4.866;2022-10-30T15:46:22;18.57;64.16
75899;DHT22;64576;50.460;4.866;2022-10-30T15:48:48;18.45;64.51
75899;DHT22;64576;50.460;4.866;2022-10-30T15:51:21;18.34;65.06
75899;DHT22;64576;50.460;4.866;2022-10-30T15:53:53;18.31;65.61
75899;DHT22;64576;50.460;4.866;2022-10-30T15:56:36;18.22;65.89
75899;DHT22;64576;50.460;4.866;2022-10-30T15:59:04;18.15;66.49
75899;DHT22;64576;50.460;4.866;2022-10-30T16:01:32;18.07;67.05
75899;DHT22;64576;50.460;4.866;2022-10-30T16:03:58;17.98;67.46
75899;DHT22;64576;50.460;4.866;2022-10-30T16:06:26;17.90;67.89
75899;DHT22;64576;50.460;4.866;2022-10-30T16:08:51;17.84;68.22
75899;DHT22;64576;50.460;4.866;2022-10-30T16:11:17;17.80;68.59
75899;DHT22;64576;50.460;4.866;2022-10-30T16:13:45;17.74;68.89
75899;DHT22;64576;50.460;4.866;2022-10-30T16:16:15;17.66;69.39
75899;DHT22;64576;50.460;4.866;2022-10-30T16:18:41;17.59;69.93
75899;DHT22;64576;50.460;4.866;2022-10-30T16:21:08;17.49;70.39
75899;DHT22;64576;50.460;4.866;2022-10-30T16:23:45;17.38;70.92
75899;DHT22;64576;50.460;4.866;2022-10-30T16:26:29;17.29;71.41
75899;DHT22;64576;50.460;4.866;2022-10-30T16:28:59;17.18;71.94
75899;DHT22;64576;50.460;4.866;2022-10-30T16:31:29;17.14;72.20
75899;DHT22;64576;50.460;4.866;2022-10-30T16:33:56;17.00;72.78
75899;DHT22;64576;50.460;4.866;2022-10-30T16:36:22;16.98;72.92
75899;DHT22;64576;50.460;4.866;2022-10-30T16:38:48;16.85;73.54
75899;DHT22;64576;50.460;4.866;2022-10-30T16:41:14;16.77;73.93
75899;DHT22;64576;50.460;4.866;2022-10-30T16:43:41;16.71;74.29
75899;DHT22;64576;50.460;4.866;2022-10-30T16:48:47;16.55;75.16
75899;DHT22;64576;50.460;4.866;2022-10-30T16:51:16;16.46;75.53
75899;DHT22;64576;50.460;4.866;2022-10-30T16:53:46;16.28;76.28
75899;DHT22;64576;50.460;4.866;2022-10-30T16:58:46;16.30;76.48
75899;DHT22;64576;50.460;4.866;2022-10-30T17:01:11;16.35;76.33
75899;DHT22;64576;50.460;4.866;2022-10-30T17:03:38;16.32;76.58
75899;DHT22;64576;50.460;4.866;2022-10-30T17:06:23;16.23;76.92
75899;DHT22;64576;50.460;4.866;2022-10-30T17:08:52;16.11;77.57
75899;DHT22;64576;50.460;4.866;2022-10-30T17:11:19;16.05;77.90
75899;DHT22;64576;50.460;4.866;2022-10-30T17:13:58;16.01;78.33
75899;DHT22;64576;50.460;4.866;2022-10-30T17:18:59;15.97;78.64
75899;DHT22;64576;50.460;4.866;2022-10-30T17:21:28;15.87;79.22
75899;DHT22;64576;50.460;4.866;2022-10-30T17:23:59;15.87;79.33
75899;DHT22;64576;50.460;4.866;2022-10-30T17:26:26;15.86;79.30
75899;DHT22;64576;50.460;4.866;2022-10-30T17:28:55;15.87;79.27
75899;DHT22;64576;50.460;4.866;2022-10-30T17:34:19;15.84;79.54
75899;DHT22;64576;50.460;4.866;2022-10-30T17:36:49;15.78;79.99
75899;DHT22;64576;50.460;4.866;2022-10-30T17:39:15;15.61;80.51
75899;DHT22;64576;50.460;4.866;2022-10-30T17:41:41;15.66;80.77
75899;DHT22;64576;50.460;4.866;2022-10-30T17:44:15;15.57;81.23
75899;DHT22;64576;50.460;4.866;2022-10-30T17:46:42;15.63;81.29
75899;DHT22;64576;50.460;4.866;2022-10-30T17:49:21;15.74;80.93
75899;DHT22;64576;50.460;4.866;2022-10-30T17:51:47;15.81;80.78